»·PEaware :: QXE2183 KSJC-KLAX

QXE2183 :: KSJC-KLAX

FLIGHT INFORMATION

Flight Status: Arrived
Operator:
Horizon Air
More flights by this operator :: More flights under this callsign
Pilot: Anonymous 16594 (16594)
Aircraft: DEHAVILLAND DASH 8 400
(DH8D)
More flights by this aircraft type
Origin: KSJC Mineta San Jose Intl
United States
Destination: KLAX Los Angeles Intl
United States
More flights between these airports :: More routes between these airports
Route: +SJC2 PXN EHF WAYVE1
File this flight plan on PilotEdge
Remarks:
Altitude:
(Current/Filed)
25,000ft
Speed:
(Current/Filed)
340kts
Departed: 25-Sep-17 05:14 PM
Arrived: 25-Sep-17 06:21 PM
Distance/Time
Traveled:
268nm/1:06
Distance/Time
To Go:
Arrived

Flight Plot

Page will automatically refresh every two minutes.

Flight plan parsing failed; only flown route is shown


Map Options




Map Legend


Flown Route
Filed Route
Departure Airport
Arrival Airport
Navaid (VOR, NDB)
Fix

Horizontal Profiles

Position Reports

Time Latitude Longitude Heading Altitude Ground
Speed
25-Sep-17 16:38 37.369225 -121.928908 48 69ft 0kts
25-Sep-17 16:39 37.369225 -121.928908 48 69ft 0kts
25-Sep-17 16:40 37.369225 -121.928908 48 69ft 0kts
25-Sep-17 16:41 37.369225 -121.928908 48 69ft 0kts
25-Sep-17 16:42 37.369225 -121.928908 48 69ft 0kts
25-Sep-17 16:43 37.369225 -121.928908 48 69ft 0kts
25-Sep-17 16:44 37.369225 -121.928908 48 69ft 0kts
25-Sep-17 16:45 37.369225 -121.928908 48 69ft 0kts
25-Sep-17 16:46 37.369225 -121.928908 48 69ft 0kts
25-Sep-17 16:47 37.369225 -121.928908 48 69ft 0kts
25-Sep-17 16:48 37.369225 -121.928908 48 69ft 0kts
25-Sep-17 16:49 37.369225 -121.928908 48 69ft 0kts
25-Sep-17 16:50 37.369225 -121.928908 48 69ft 0kts
25-Sep-17 16:51 37.369225 -121.928908 48 69ft 0kts
25-Sep-17 16:52 37.369225 -121.928908 48 69ft 0kts
25-Sep-17 16:53 37.369225 -121.928908 48 69ft 0kts
25-Sep-17 16:54 37.369225 -121.928908 48 69ft 0kts
25-Sep-17 16:55 37.369225 -121.928908 48 69ft 0kts
25-Sep-17 16:56 37.369225 -121.928908 48 69ft 0kts
25-Sep-17 16:57 37.369225 -121.928908 48 69ft 0kts
25-Sep-17 16:58 37.369225 -121.928908 48 69ft 0kts
25-Sep-17 16:59 37.369225 -121.928908 48 69ft 0kts
25-Sep-17 17:00 37.369225 -121.928908 48 69ft 0kts
25-Sep-17 17:01 37.369225 -121.928908 48 69ft 0kts
25-Sep-17 17:02 37.369225 -121.928908 48 69ft 0kts
25-Sep-17 17:03 37.369225 -121.928908 48 69ft 0kts
25-Sep-17 17:04 37.369225 -121.928908 48 69ft 0kts
25-Sep-17 17:05 37.369225 -121.928908 48 69ft 0kts
25-Sep-17 17:06 37.369085 -121.929107 48 69ft 2kts
25-Sep-17 17:07 37.368728 -121.929615 50 69ft 2kts
25-Sep-17 17:08 37.368694 -121.930338 138 69ft 0kts
25-Sep-17 17:09 37.368694 -121.930338 138 69ft 0kts
25-Sep-17 17:10 37.368694 -121.930338 138 69ft 0kts
25-Sep-17 17:11 37.368694 -121.930338 138 69ft 0kts
25-Sep-17 17:12 37.366244 -121.928547 137 69ft 14kts
25-Sep-17 17:13 37.363196 -121.925171 138 69ft 22kts
25-Sep-17 17:14 37.357147 -121.918496 138 69ft 30kts
25-Sep-17 17:15 37.353776 -121.914879 158 69ft 12kts
25-Sep-17 17:16 37.353446 -121.915039 224 69ft 0kts
25-Sep-17 17:17 37.353409 -121.915084 224 69ft 4kts
25-Sep-17 17:18 37.359083 -121.922771 316 70ft 123kts
25-Sep-17 17:19 37.386499 -121.959453 308 2627ft 148kts
25-Sep-17 17:20 37.419711 -121.960321 65 5206ft 165kts
25-Sep-17 17:21 37.397071 -121.909395 127 6657ft 162kts
25-Sep-17 17:22 37.363107 -121.862436 127 7557ft 195kts
25-Sep-17 17:23 37.323210 -121.806033 127 8826ft 219kts
25-Sep-17 17:24 37.280713 -121.747543 130 10664ft 227kts
25-Sep-17 17:25 37.234071 -121.691079 128 12713ft 236kts
25-Sep-17 17:26 37.185877 -121.630860 127 14728ft 250kts
25-Sep-17 17:27 37.137247 -121.565802 116 16505ft 257kts
25-Sep-17 17:28 37.092995 -121.491777 122 18028ft 271kts
25-Sep-17 17:29 37.049717 -121.413019 115 19395ft 277kts
25-Sep-17 17:30 37.006606 -121.330972 115 20681ft 284kts
25-Sep-17 17:31 36.962592 -121.247385 114 21839ft 290kts
25-Sep-17 17:32 36.917488 -121.161680 114 22869ft 296kts
25-Sep-17 17:33 36.871710 -121.074745 114 23780ft 301kts
25-Sep-17 17:34 36.824944 -120.986089 114 24584ft 306kts
25-Sep-17 17:35 36.777165 -120.895422 114 24985ft 323kts
25-Sep-17 17:36 36.726539 -120.799151 115 25000ft 342kts
25-Sep-17 17:37 36.663730 -120.705231 126 24999ft 361kts
25-Sep-17 17:38 36.595707 -120.611978 125 25003ft 366kts
25-Sep-17 17:39 36.527720 -120.517031 125 24995ft 370kts
25-Sep-17 17:40 36.458926 -120.421606 125 24992ft 373kts
25-Sep-17 17:41 36.389560 -120.325565 126 24991ft 374kts
25-Sep-17 17:42 36.319983 -120.229392 126 24990ft 375kts
25-Sep-17 17:43 36.250320 -120.133678 126 24990ft 375kts
25-Sep-17 17:44 36.180657 -120.038007 126 24990ft 375kts
25-Sep-17 17:45 36.110989 -119.942377 126 24990ft 375kts
25-Sep-17 17:46 36.040960 -119.846714 127 24993ft 375kts
25-Sep-17 17:47 35.970939 -119.751934 127 24993ft 375kts
25-Sep-17 17:48 35.900462 -119.656282 126 24911ft 376kts
25-Sep-17 17:49 35.830255 -119.561105 127 24908ft 376kts
25-Sep-17 17:50 35.759953 -119.466228 127 24909ft 376kts
25-Sep-17 17:51 35.689639 -119.371689 127 24907ft 375kts
25-Sep-17 17:52 35.619396 -119.277337 127 24904ft 375kts
25-Sep-17 17:53 35.548863 -119.182997 127 24900ft 374kts
25-Sep-17 17:54 35.512453 -119.134471 127 24896ft 372kts
25-Sep-17 17:55 35.434222 -119.051039 144 24896ft 377kts
25-Sep-17 17:56 35.347984 -118.978273 141 23923ft 376kts
25-Sep-17 17:57 35.264673 -118.903878 142 22312ft 372kts
25-Sep-17 17:58 35.180892 -118.831112 143 20591ft 366kts
25-Sep-17 17:59 35.099368 -118.760035 143 18909ft 357kts
25-Sep-17 18:00 35.017589 -118.694669 158 17231ft 348kts
25-Sep-17 18:01 34.924866 -118.663527 164 15288ft 347kts
25-Sep-17 18:02 34.833528 -118.630903 163 13473ft 338kts
25-Sep-17 18:03 34.745135 -118.599059 163 11669ft 322kts
25-Sep-17 18:04 34.663990 -118.566994 154 9940ft 282kts
25-Sep-17 18:05 34.598479 -118.527535 152 9159ft 238kts
25-Sep-17 18:06 34.541526 -118.494018 152 9115ft 221kts
25-Sep-17 18:07 34.484241 -118.460474 153 8170ft 240kts
25-Sep-17 18:08 34.426888 -118.426803 153 7094ft 211kts
25-Sep-17 18:09 34.374183 -118.396583 153 7053ft 208kts
25-Sep-17 18:10 34.321623 -118.366764 153 7038ft 206kts
25-Sep-17 18:11 34.269756 -118.337221 154 7045ft 205kts
25-Sep-17 18:12 34.217831 -118.307693 154 7018ft 205kts
25-Sep-17 18:13 34.173809 -118.264794 132 7008ft 204kts
25-Sep-17 18:14 34.134419 -118.214665 132 7006ft 204kts
25-Sep-17 18:15 34.094480 -118.163790 132 6446ft 229kts
25-Sep-17 18:16 34.047847 -118.102864 132 5244ft 250kts
25-Sep-17 18:17 34.001250 -118.042781 151 3957ft 240kts
25-Sep-17 18:18 33.955740 -118.073982 267 3604ft 208kts
25-Sep-17 18:19 33.958832 -118.138213 267 3614ft 174kts
25-Sep-17 18:20 33.956391 -118.194469 263 3157ft 171kts
25-Sep-17 18:21 33.951067 -118.252385 261 2226ft 158kts
25-Sep-17 18:22 33.947323 -118.289638 261 1707ft 133kts
25-Sep-17 18:23 33.942373 -118.333032 263 1038ft 132kts
25-Sep-17 18:24 33.938386 -118.375281 261 299ft 117kts
25-Sep-17 18:25 33.936988 -118.393744 355 133ft 9kts
25-Sep-17 18:26 33.937503 -118.393771 357 133ft 0kts
25-Sep-17 18:27 33.937503 -118.393771 357 133ft 0kts
25-Sep-17 18:28 33.939426 -118.394256 264 133ft 15kts
25-Sep-17 18:29 33.938660 -118.401644 262 133ft 22kts
25-Sep-17 18:30 33.939350 -118.407962 351 133ft 18kts
25-Sep-17 18:31 33.941792 -118.407510 86 133ft 0kts
25-Sep-17 18:32 33.941792 -118.407510 86 133ft 0kts
25-Sep-17 18:33 33.941792 -118.407510 86 133ft 0kts
25-Sep-17 18:34 33.941792 -118.407510 86 133ft 0kts

Navigation Log

Ident Type
Flight plan parsing failed, navigation log unavailable